createdAt,value
2017-12-24T00:00:45.366Z,0
2017-12-24T00:01:45.638Z,0
2017-12-24T00:02:45.649Z,0
2017-12-24T00:03:45.109Z,0
2017-12-24T00:04:45.631Z,0
2017-12-24T00:05:45.907Z,0
2017-12-24T00:06:45.694Z,0
2017-12-24T00:07:45.687Z,0
2017-12-24T00:08:45.967Z,0
2017-12-24T00:09:46.025Z,0
2017-12-24T00:10:45.739Z,0
2017-12-24T00:11:45.742Z,0
2017-12-24T00:12:45.750Z,0
2017-12-24T00:13:46.026Z,0
2017-12-24T00:14:45.778Z,0
2017-12-24T00:15:45.788Z,0
2017-12-24T00:16:45.323Z,0
2017-12-24T00:17:45.599Z,0
2017-12-24T00:18:45.407Z,0
2017-12-24T00:19:45.624Z,0
2017-12-24T00:20:45.869Z,0
2017-12-24T00:21:45.884Z,0
2017-12-24T00:22:45.671Z,0
2017-12-24T00:23:46.174Z,0
2017-12-24T00:24:45.973Z,0
2017-12-24T00:25:46.195Z,0
2017-12-24T00:26:45.954Z,0
2017-12-24T00:27:45.716Z,0
2017-12-24T00:28:45.984Z,0
2017-12-24T00:29:45.740Z,0
2017-12-24T00:30:46.251Z,0
2017-12-24T00:31:46.036Z,0
2017-12-24T00:32:46.044Z,0
2017-12-24T00:33:45.815Z,0
2017-12-24T00:34:46.087Z,0
2017-12-24T00:35:45.837Z,0
2017-12-24T00:36:46.104Z,0
2017-12-24T00:37:45.614Z,0
2017-12-24T00:38:45.636Z,0
2017-12-24T00:39:46.200Z,0
2017-12-24T00:40:45.913Z,0
2017-12-24T00:41:46.440Z,0
2017-12-24T00:42:46.450Z,0
2017-12-24T00:43:45.964Z,0
2017-12-24T00:44:46.267Z,0
2017-12-24T00:45:46.242Z,0
2017-12-24T00:46:46.507Z,0
2017-12-24T00:47:45.779Z,0
2017-12-24T00:48:46.030Z,0
2017-12-24T00:49:46.298Z,0
2017-12-24T00:50:46.314Z,0
2017-12-24T00:51:46.330Z,0
2017-12-24T00:52:46.344Z,0
2017-12-24T00:53:46.356Z,0
2017-12-24T00:54:46.426Z,0
2017-12-24T00:55:46.387Z,0
2017-12-24T00:56:46.402Z,0
2017-12-24T00:57:46.667Z,0
2017-12-24T00:58:46.440Z,0
2017-12-24T00:59:46.697Z,0
2017-12-24T01:00:45.956Z,0
2017-12-24T01:01:45.966Z,0
2017-12-24T01:02:46.506Z,0
2017-12-24T01:03:46.501Z,0
2017-12-24T01:04:46.519Z,0
2017-12-24T01:05:46.788Z,0
2017-12-24T01:06:46.550Z,0
2017-12-24T01:07:46.815Z,0
2017-12-24T01:08:46.072Z,0
2017-12-24T01:09:46.646Z,0
2017-12-24T01:10:46.664Z,0
2017-12-24T01:11:46.619Z,0
2017-12-24T01:12:46.389Z,0
2017-12-24T01:13:46.394Z,0
2017-12-24T01:14:46.680Z,0
2017-12-24T01:15:46.690Z,0
2017-12-24T01:16:46.705Z,0
2017-12-24T01:17:46.464Z,0
2017-12-24T01:18:46.223Z,0
2017-12-24T01:19:46.744Z,0
2017-12-24T01:20:46.770Z,0
2017-12-24T01:21:46.766Z,0
2017-12-24T01:22:46.782Z,0
2017-12-24T01:23:46.808Z,0
2017-12-24T01:24:47.060Z,0
2017-12-24T01:25:46.625Z,0
2017-12-24T01:26:46.585Z,0
2017-12-24T01:27:46.857Z,0
2017-12-24T01:28:46.870Z,0
2017-12-24T01:29:47.136Z,0
2017-12-24T01:30:46.641Z,0
2017-12-24T01:31:46.922Z,0
2017-12-24T01:32:46.930Z,0
2017-12-24T01:33:46.439Z,0
2017-12-24T01:34:47.011Z,0
2017-12-24T01:35:46.716Z,0
2017-12-24T01:36:46.730Z,0
2017-12-24T01:37:47.254Z,0
2017-12-24T01:38:47.018Z,0
2017-12-24T01:39:46.772Z,0
2017-12-24T01:40:46.847Z,0
2017-12-24T01:41:46.804Z,0
2017-12-24T01:42:47.319Z,0
2017-12-24T01:43:46.834Z,0
2017-12-24T01:44:46.853Z,0
2017-12-24T01:45:46.624Z,0
2017-12-24T01:46:46.627Z,0
2017-12-24T01:47:47.151Z,0
2017-12-24T01:48:47.162Z,0
2017-12-24T01:49:46.922Z,0
2017-12-24T01:50:47.437Z,0
2017-12-24T01:51:47.220Z,0
2017-12-24T01:52:47.024Z,0
2017-12-24T01:53:47.231Z,0
2017-12-24T01:54:47.525Z,0
2017-12-24T01:55:47.567Z,0
2017-12-24T01:56:47.528Z,0
2017-12-24T01:57:47.294Z,0
2017-12-24T01:58:47.303Z,0
2017-12-24T01:59:47.321Z,0
2017-12-24T02:00:47.083Z,0
2017-12-24T02:01:47.601Z,0
2017-12-24T02:02:47.621Z,0
2017-12-24T02:03:47.624Z,0
2017-12-24T02:04:46.886Z,0
2017-12-24T02:05:47.662Z,0
2017-12-24T02:06:47.171Z,0
2017-12-24T02:07:47.900Z,0
2017-12-24T02:08:47.464Z,0
2017-12-24T02:09:47.212Z,0
2017-12-24T02:10:47.530Z,0
2017-12-24T02:11:47.538Z,0
2017-12-24T02:12:47.256Z,0
2017-12-24T02:13:47.773Z,0
2017-12-24T02:14:47.532Z,0
2017-12-24T02:15:47.543Z,0
2017-12-24T02:16:47.557Z,0
2017-12-24T02:17:47.835Z,0
2017-12-24T02:18:47.582Z,0
2017-12-24T02:19:47.713Z,0
2017-12-24T02:20:47.639Z,0
2017-12-24T02:21:47.444Z,0
2017-12-24T02:22:47.397Z,0
2017-12-24T02:23:47.417Z,0
2017-12-24T02:24:47.452Z,0
2017-12-24T02:25:47.495Z,0
2017-12-24T02:26:47.456Z,0
2017-12-24T02:27:46.963Z,0
2017-12-24T02:28:47.735Z,0
2017-12-24T02:29:47.496Z,0
2017-12-24T02:30:47.774Z,0
2017-12-24T02:31:47.798Z,0
2017-12-24T02:32:47.595Z,0
2017-12-24T02:33:47.818Z,0
2017-12-24T02:34:47.575Z,0
2017-12-24T02:35:47.584Z,0
2017-12-24T02:36:48.185Z,0
2017-12-24T02:37:48.135Z,0
2017-12-24T02:38:47.638Z,0
2017-12-24T02:39:47.917Z,0
2017-12-24T02:40:47.977Z,0
2017-12-24T02:41:47.936Z,0
2017-12-24T02:42:47.436Z,0
2017-12-24T02:43:47.701Z,0
2017-12-24T02:44:47.976Z,0
2017-12-24T02:45:47.981Z,0
2017-12-24T02:46:48.280Z,0
2017-12-24T02:47:48.272Z,0
2017-12-24T02:48:47.794Z,0
2017-12-24T02:49:47.533Z,0
2017-12-24T02:50:47.810Z,0
2017-12-24T02:51:47.836Z,0
2017-12-24T02:52:48.343Z,0
2017-12-24T02:53:47.853Z,0
2017-12-24T02:54:47.865Z,0
2017-12-24T02:55:48.466Z,0
2017-12-24T02:56:47.645Z,0
2017-12-24T02:57:48.413Z,0
2017-12-24T02:58:48.178Z,0
2017-12-24T02:59:47.931Z,0
2017-12-24T03:00:48.193Z,0
2017-12-24T03:01:47.963Z,0
2017-12-24T03:02:47.970Z,0
2017-12-24T03:03:48.501Z,0
2017-12-24T03:04:48.007Z,0
2017-12-24T03:05:48.064Z,0
2017-12-24T03:06:48.069Z,0
2017-12-24T03:07:48.554Z,0
2017-12-24T03:08:47.810Z,0
2017-12-24T03:09:48.077Z,0
2017-12-24T03:10:48.402Z,0
2017-12-24T03:11:48.107Z,0
2017-12-24T03:12:48.119Z,0
2017-12-24T03:13:48.398Z,0
2017-12-24T03:14:48.146Z,0
2017-12-24T03:15:48.671Z,0
2017-12-24T03:16:48.428Z,0
2017-12-24T03:17:48.459Z,0
2017-12-24T03:18:48.718Z,0
2017-12-24T03:19:48.473Z,0
2017-12-24T03:20:48.498Z,0
2017-12-24T03:21:48.503Z,0
2017-12-24T03:22:48.011Z,0
2017-12-24T03:23:48.533Z,0
2017-12-24T03:24:48.805Z,0
2017-12-24T03:25:48.865Z,0
2017-12-24T03:26:48.578Z,0
2017-12-24T03:27:48.849Z,0
2017-12-24T03:28:48.610Z,0
2017-12-24T03:29:48.619Z,0
2017-12-24T03:30:48.658Z,0
2017-12-24T03:31:47.896Z,0
2017-12-24T03:32:48.420Z,0
2017-12-24T03:33:48.936Z,0
2017-12-24T03:34:48.694Z,0
2017-12-24T03:35:48.726Z,0
2017-12-24T03:36:48.995Z,0
2017-12-24T03:37:48.754Z,0
2017-12-24T03:38:48.298Z,0
2017-12-24T03:39:48.769Z,0
2017-12-24T03:40:48.883Z,0
2017-12-24T03:41:48.543Z,0
2017-12-24T03:42:48.809Z,0
2017-12-24T03:43:48.572Z,0
2017-12-24T03:44:48.582Z,0
2017-12-24T03:45:49.115Z,0
2017-12-24T03:46:48.872Z,0
2017-12-24T03:47:49.132Z,0
2017-12-24T03:48:48.651Z,0
2017-12-24T03:49:49.170Z,0
2017-12-24T03:50:48.927Z,0
2017-12-24T03:51:48.703Z,0
2017-12-24T03:52:48.957Z,0
2017-12-24T03:53:48.721Z,0
2017-12-24T03:54:48.526Z,0
2017-12-24T03:55:49.110Z,0
2017-12-24T03:56:49.271Z,0
2017-12-24T03:57:49.283Z,0
2017-12-24T03:58:49.304Z,0
2017-12-24T03:59:49.071Z,0
2017-12-24T04:00:49.074Z,0
2017-12-24T04:01:48.835Z,0
2017-12-24T04:02:49.101Z,0
2017-12-24T04:03:49.372Z,0
2017-12-24T04:04:49.135Z,0
2017-12-24T04:05:49.140Z,0
2017-12-24T04:06:48.904Z,0
2017-12-24T04:07:48.918Z,0
2017-12-24T04:08:49.448Z,0
2017-12-24T04:09:49.451Z,0
2017-12-24T04:10:49.015Z,0
2017-12-24T04:11:49.221Z,0
2017-12-24T04:12:49.242Z,0
2017-12-24T04:13:49.509Z,0
2017-12-24T04:14:49.282Z,0
2017-12-24T04:15:49.288Z,0
2017-12-24T04:16:49.574Z,0
2017-12-24T04:17:49.315Z,0
2017-12-24T04:18:49.080Z,0
2017-12-24T04:19:49.090Z,0
2017-12-24T04:20:49.371Z,0
2017-12-24T04:21:49.381Z,0
2017-12-24T04:22:49.384Z,0
2017-12-24T04:23:49.150Z,0
2017-12-24T04:24:49.667Z,0
2017-12-24T04:25:49.495Z,0
2017-12-24T04:26:49.706Z,0
2017-12-24T04:27:49.722Z,0
2017-12-24T04:28:49.481Z,0
2017-12-24T04:29:49.473Z,0
2017-12-24T04:30:49.239Z,0
2017-12-24T04:31:49.500Z,0
2017-12-24T04:32:49.282Z,0
2017-12-24T04:33:49.804Z,0
2017-12-24T04:34:49.560Z,0
2017-12-24T04:35:49.573Z,0
2017-12-24T04:36:49.336Z,0
2017-12-24T04:37:49.604Z,0
2017-12-24T04:38:49.872Z,0
2017-12-24T04:39:49.899Z,0
2017-12-24T04:40:49.397Z,0
2017-12-24T04:41:49.714Z,0
2017-12-24T04:42:49.679Z,0
2017-12-24T04:43:49.441Z,0
2017-12-24T04:44:49.454Z,0
2017-12-24T04:45:49.476Z,0
2017-12-24T04:46:49.484Z,0
2017-12-24T04:47:49.799Z,0
2017-12-24T04:48:49.511Z,0
2017-12-24T04:49:49.783Z,0
2017-12-24T04:50:49.535Z,0
2017-12-24T04:51:49.305Z,0
2017-12-24T04:52:50.088Z,0
2017-12-24T04:53:49.835Z,0
2017-12-24T04:54:49.849Z,0
2017-12-24T04:55:49.876Z,0
2017-12-24T04:56:49.526Z,0
2017-12-24T04:57:49.640Z,0
2017-12-24T04:58:49.915Z,0
2017-12-24T04:59:49.924Z,0
2017-12-24T05:00:50.199Z,0
2017-12-24T05:01:49.974Z,0
2017-12-24T05:02:49.718Z,0
2017-12-24T05:03:50.237Z,0
2017-12-24T05:04:49.994Z,0
2017-12-24T05:05:50.015Z,0
2017-12-24T05:06:49.773Z,0
2017-12-24T05:07:49.785Z,0
2017-12-24T05:08:49.800Z,0
2017-12-24T05:09:50.088Z,0
2017-12-24T05:10:50.084Z,0
2017-12-24T05:11:49.897Z,0
2017-12-24T05:12:50.120Z,0
2017-12-24T05:13:49.644Z,0
2017-12-24T05:14:50.150Z,0
2017-12-24T05:15:50.218Z,0
2017-12-24T05:16:50.169Z,0
2017-12-24T05:17:50.188Z,0
2017-12-24T05:18:50.212Z,0
2017-12-24T05:19:50.209Z,0
2017-12-24T05:20:50.224Z,0
2017-12-24T05:21:50.238Z,0
2017-12-24T05:22:50.508Z,0
2017-12-24T05:23:50.521Z,0
2017-12-24T05:24:50.287Z,0
2017-12-24T05:25:50.046Z,0
2017-12-24T05:26:50.111Z,0
2017-12-24T05:27:50.080Z,0
2017-12-24T05:28:49.834Z,0
2017-12-24T05:29:50.357Z,0
2017-12-24T05:30:50.409Z,0
2017-12-24T05:31:50.393Z,0
2017-12-24T05:32:50.148Z,0
2017-12-24T05:33:50.413Z,0
2017-12-24T05:34:50.432Z,0
2017-12-24T05:35:50.189Z,0
2017-12-24T05:36:50.460Z,0
2017-12-24T05:37:50.729Z,0
2017-12-24T05:38:50.507Z,0
2017-12-24T05:39:50.520Z,0
2017-12-24T05:40:50.260Z,0
2017-12-24T05:41:50.344Z,0
2017-12-24T05:42:50.795Z,0
2017-12-24T05:43:50.304Z,0
2017-12-24T05:44:50.322Z,0
2017-12-24T05:45:50.588Z,0
2017-12-24T05:46:50.349Z,0
2017-12-24T05:47:50.875Z,0
2017-12-24T05:48:50.622Z,0
2017-12-24T05:49:50.643Z,0
2017-12-24T05:50:50.411Z,0
2017-12-24T05:51:50.935Z,0
2017-12-24T05:52:50.941Z,0
2017-12-24T05:53:50.960Z,0
2017-12-24T05:54:50.716Z,0
2017-12-24T05:55:50.725Z,0
2017-12-24T05:56:50.754Z,0
2017-12-24T05:57:50.807Z,0
2017-12-24T05:58:50.769Z,0
2017-12-24T05:59:50.275Z,0
2017-12-24T06:00:50.548Z,0
2017-12-24T06:01:50.307Z,0
2017-12-24T06:02:50.835Z,0
2017-12-24T06:03:50.843Z,0
2017-12-24T06:04:50.868Z,0
2017-12-24T06:05:50.618Z,0
2017-12-24T06:06:51.148Z,0
2017-12-24T06:07:51.227Z,0
2017-12-24T06:08:50.666Z,0
2017-12-24T06:09:50.684Z,0
2017-12-24T06:10:50.702Z,0
2017-12-24T06:11:51.225Z,0
2017-12-24T06:12:51.030Z,0
2017-12-24T06:13:50.990Z,0
2017-12-24T06:14:51.005Z,0
2017-12-24T06:15:50.532Z,0
2017-12-24T06:16:50.792Z,0
2017-12-24T06:17:50.791Z,0
2017-12-24T06:18:51.062Z,0
2017-12-24T06:19:50.568Z,0
2017-12-24T06:20:50.853Z,0
2017-12-24T06:21:50.848Z,0
2017-12-24T06:22:50.869Z,0
2017-12-24T06:23:51.132Z,0
2017-12-24T06:24:51.201Z,0
2017-12-24T06:25:51.412Z,0
2017-12-24T06:26:51.178Z,0
2017-12-24T06:27:51.234Z,0
2017-12-24T06:28:51.205Z,0
2017-12-24T06:29:51.466Z,0
2017-12-24T06:30:51.496Z,0
2017-12-24T06:31:51.249Z,0
2017-12-24T06:32:51.465Z,0
2017-12-24T06:33:51.327Z,0
2017-12-24T06:34:51.297Z,0
2017-12-24T06:35:51.369Z,0
2017-12-24T06:36:50.812Z,0
2017-12-24T06:37:51.089Z,0
2017-12-24T06:38:51.099Z,0
2017-12-24T06:39:51.106Z,0
2017-12-24T06:40:51.378Z,0
2017-12-24T06:41:51.399Z,0
2017-12-24T06:42:50.948Z,0
2017-12-24T06:43:51.399Z,0
2017-12-24T06:44:51.424Z,0
2017-12-24T06:45:51.477Z,0
2017-12-24T06:46:51.462Z,0
2017-12-24T06:47:51.481Z,0
2017-12-24T06:48:51.486Z,0
2017-12-24T06:49:51.271Z,0
2017-12-24T06:50:51.523Z,0
2017-12-24T06:51:51.281Z,0
2017-12-24T06:52:51.293Z,0
2017-12-24T06:53:51.070Z,0
2017-12-24T06:54:51.571Z,0
2017-12-24T06:55:51.887Z,0
2017-12-24T06:56:51.597Z,0
2017-12-24T06:57:51.662Z,0
2017-12-24T06:58:51.128Z,0
2017-12-24T06:59:51.396Z,0
2017-12-24T07:00:51.660Z,0
2017-12-24T07:01:51.168Z,0
2017-12-24T07:02:51.180Z,0
2017-12-24T07:03:51.447Z,0
2017-12-24T07:04:51.729Z,0
2017-12-24T07:05:51.730Z,0
2017-12-24T07:06:51.993Z,0
2017-12-24T07:07:51.510Z,0
2017-12-24T07:08:51.520Z,0
2017-12-24T07:09:52.040Z,5
2017-12-24T07:10:51.817Z,5
2017-12-24T07:11:52.065Z,5
2017-12-24T07:12:51.915Z,5
2017-12-24T07:13:51.840Z,5
2017-12-24T07:14:52.107Z,5
2017-12-24T07:15:52.114Z,5
2017-12-24T07:16:51.630Z,5
2017-12-24T07:17:51.901Z,5
2017-12-24T07:18:52.169Z,5
2017-12-24T07:19:51.931Z,5
2017-12-24T07:20:51.436Z,5
2017-12-24T07:21:51.966Z,5
2017-12-24T07:22:51.968Z,10
2017-12-24T07:23:52.238Z,10
2017-12-24T07:24:52.004Z,10
2017-12-24T07:25:52.008Z,10
2017-12-24T07:26:52.030Z,10
2017-12-24T07:27:52.036Z,10
2017-12-24T07:28:51.550Z,10
2017-12-24T07:29:52.379Z,10
2017-12-24T07:30:51.833Z,15
2017-12-24T07:31:52.367Z,15
2017-12-24T07:32:52.116Z,15
2017-12-24T07:33:51.883Z,15
2017-12-24T07:34:51.885Z,15
2017-12-24T07:35:51.901Z,15
2017-12-24T07:36:52.160Z,15
2017-12-24T07:37:52.181Z,15
2017-12-24T07:38:52.195Z,15
2017-12-24T07:39:51.948Z,15
2017-12-24T07:40:51.719Z,15
2017-12-24T07:41:52.246Z,15
2017-12-24T07:42:52.241Z,20
2017-12-24T07:43:51.755Z,20
2017-12-24T07:44:52.320Z,20
2017-12-24T07:45:52.287Z,20
2017-12-24T07:46:52.302Z,20
2017-12-24T07:47:52.570Z,20
2017-12-24T07:48:52.077Z,20
2017-12-24T07:49:52.337Z,25
2017-12-24T07:50:52.171Z,25
2017-12-24T07:51:52.616Z,25
2017-12-24T07:52:52.388Z,30
2017-12-24T07:53:52.671Z,30
2017-12-24T07:54:52.668Z,30
2017-12-24T07:55:51.926Z,35
2017-12-24T07:56:52.697Z,35
2017-12-24T07:57:52.209Z,35
2017-12-24T07:58:52.474Z,35
2017-12-24T07:59:52.536Z,35
2017-12-24T08:00:52.783Z,35
2017-12-24T08:01:52.778Z,35
2017-12-24T08:02:52.564Z,40
2017-12-24T08:03:52.564Z,40
2017-12-24T08:04:52.313Z,40
2017-12-24T08:05:52.827Z,40
2017-12-24T08:06:52.337Z,40
2017-12-24T08:07:52.358Z,45
2017-12-24T08:08:52.624Z,45
2017-12-24T08:09:52.637Z,45
2017-12-24T08:10:52.659Z,45
2017-12-24T08:11:52.658Z,45
2017-12-24T08:12:52.678Z,50
2017-12-24T08:13:52.691Z,50
2017-12-24T08:14:53.007Z,45
2017-12-24T08:15:52.972Z,50
2017-12-24T08:16:52.737Z,45
2017-12-24T08:17:52.497Z,45
2017-12-24T08:18:52.762Z,45
2017-12-24T08:19:52.527Z,45
2017-12-24T08:20:53.041Z,45
2017-12-24T08:21:52.805Z,45
2017-12-24T08:22:53.069Z,50
2017-12-24T08:23:53.085Z,45
2017-12-24T08:24:52.856Z,50
2017-12-24T08:25:52.606Z,50
2017-12-24T08:26:52.870Z,50
2017-12-24T08:27:53.139Z,50
2017-12-24T08:28:52.643Z,55
2017-12-24T08:29:52.966Z,60
2017-12-24T08:30:53.180Z,60
2017-12-24T08:31:52.751Z,65
2017-12-24T08:32:52.962Z,60
2017-12-24T08:33:53.217Z,80
2017-12-24T08:34:52.983Z,65
2017-12-24T08:35:52.743Z,75
2017-12-24T08:36:53.008Z,65
2017-12-24T08:37:53.033Z,70
2017-12-24T08:38:53.303Z,70
2017-12-24T08:39:53.052Z,75
2017-12-24T08:40:53.326Z,95
2017-12-24T08:41:53.349Z,75
2017-12-24T08:42:53.102Z,75
2017-12-24T08:43:53.373Z,75
2017-12-24T08:44:53.430Z,80
2017-12-24T08:45:53.142Z,85
2017-12-24T08:46:53.159Z,75
2017-12-24T08:47:53.427Z,85
2017-12-24T08:48:53.458Z,90
2017-12-24T08:49:53.552Z,80
2017-12-24T08:50:53.217Z,90
2017-12-24T08:51:53.486Z,95
2017-12-24T08:52:53.052Z,90
2017-12-24T08:53:53.510Z,95
2017-12-24T08:54:53.519Z,115
2017-12-24T08:55:53.548Z,100
2017-12-24T08:56:53.556Z,90
2017-12-24T08:57:53.068Z,95
2017-12-24T08:58:53.119Z,100
2017-12-24T08:59:52.889Z,100
2017-12-24T09:00:53.383Z,105
2017-12-24T09:01:53.384Z,110
2017-12-24T09:02:53.138Z,115
2017-12-24T09:03:53.656Z,135
2017-12-24T09:04:53.427Z,135
2017-12-24T09:05:53.429Z,180
2017-12-24T09:06:53.446Z,195
2017-12-24T09:07:52.988Z,180
2017-12-24T09:08:53.229Z,190
2017-12-24T09:09:53.497Z,180
2017-12-24T09:10:53.771Z,180
2017-12-24T09:11:53.276Z,175
2017-12-24T09:12:53.287Z,175
2017-12-24T09:13:53.554Z,170
2017-12-24T09:14:53.627Z,135
2017-12-24T09:15:53.336Z,135
2017-12-24T09:16:52.861Z,150
2017-12-24T09:17:53.873Z,160
2017-12-24T09:18:53.888Z,155
2017-12-24T09:19:53.400Z,150
2017-12-24T09:20:53.688Z,180
2017-12-24T09:21:53.436Z,195
2017-12-24T09:22:53.947Z,185
2017-12-24T09:23:53.455Z,185
2017-12-24T09:24:53.474Z,180
2017-12-24T09:25:53.488Z,165
2017-12-24T09:26:53.757Z,195
2017-12-24T09:27:53.522Z,175
2017-12-24T09:28:53.789Z,155
2017-12-24T09:29:53.606Z,130
2017-12-24T09:30:54.071Z,140
2017-12-24T09:31:53.829Z,170
2017-12-24T09:32:53.600Z,165
2017-12-24T09:33:53.613Z,160
2017-12-24T09:34:54.143Z,165
2017-12-24T09:35:53.908Z,165
2017-12-24T09:36:53.912Z,175
2017-12-24T09:37:53.930Z,160
2017-12-24T09:38:53.941Z,160
2017-12-24T09:39:53.970Z,165
2017-12-24T09:40:54.238Z,165
2017-12-24T09:41:54.241Z,175
2017-12-24T09:42:54.004Z,185
2017-12-24T09:43:54.268Z,185
2017-12-24T09:44:53.847Z,185
2017-12-24T09:45:54.059Z,200
2017-12-24T09:46:54.068Z,245
2017-12-24T09:47:54.341Z,235
2017-12-24T09:48:54.094Z,255
2017-12-24T09:49:53.855Z,230
2017-12-24T09:50:54.381Z,285
2017-12-24T09:51:53.906Z,230
2017-12-24T09:52:54.414Z,220
2017-12-24T09:53:53.918Z,305
2017-12-24T09:54:54.197Z,230
2017-12-24T09:55:54.204Z,240
2017-12-24T09:56:54.223Z,260
2017-12-24T09:57:53.985Z,1065
2017-12-24T09:58:54.009Z,1035
2017-12-24T09:59:54.317Z,785
2017-12-24T10:00:54.032Z,1150
2017-12-24T10:01:54.319Z,1050
2017-12-24T10:02:54.310Z,1070
2017-12-24T10:03:54.074Z,540
2017-12-24T10:04:54.446Z,415
2017-12-24T10:05:54.362Z,685
2017-12-24T10:06:54.393Z,1010
2017-12-24T10:07:54.404Z,345
2017-12-24T10:08:54.412Z,1195
2017-12-24T10:09:54.187Z,955
2017-12-24T10:10:54.693Z,335
2017-12-24T10:11:53.705Z,755
2017-12-24T10:12:54.476Z,1115
2017-12-24T10:13:54.256Z,845
2017-12-24T10:14:54.156Z,1215
2017-12-24T10:15:54.280Z,1265
2017-12-24T10:16:54.551Z,750
2017-12-24T10:17:54.820Z,870
2017-12-24T10:18:54.591Z,980
2017-12-24T10:19:54.359Z,1220
2017-12-24T10:20:54.623Z,1205
2017-12-24T10:21:54.393Z,1260
2017-12-24T10:22:54.920Z,1310
2017-12-24T10:23:54.688Z,1265
2017-12-24T10:24:54.475Z,1285
2017-12-24T10:25:54.982Z,1465
2017-12-24T10:26:54.741Z,1410
2017-12-24T10:27:55.012Z,1465
2017-12-24T10:28:54.860Z,1465
2017-12-24T10:29:54.747Z,1485
2017-12-24T10:30:54.822Z,1475
2017-12-24T10:31:54.626Z,1480
2017-12-24T10:32:54.867Z,1440
2017-12-24T10:33:55.134Z,1485
2017-12-24T10:34:54.398Z,1530
2017-12-24T10:35:55.183Z,1500
2017-12-24T10:36:54.952Z,1585
2017-12-24T10:37:54.730Z,1515
2017-12-24T10:38:54.738Z,1445
2017-12-24T10:39:54.859Z,1465
2017-12-24T10:40:55.033Z,1700
2017-12-24T10:41:55.048Z,1685
2017-12-24T10:42:54.829Z,1500
2017-12-24T10:43:54.846Z,1625
2017-12-24T10:44:54.921Z,1625
2017-12-24T10:45:55.403Z,1665
2017-12-24T10:46:55.225Z,1785
2017-12-24T10:47:54.943Z,1975
2017-12-24T10:48:55.216Z,1885
2017-12-24T10:49:54.986Z,1585
2017-12-24T10:50:55.517Z,1795
2017-12-24T10:51:55.296Z,1650
2017-12-24T10:52:55.560Z,1420
2017-12-24T10:53:55.084Z,1150
2017-12-24T10:54:55.662Z,970
2017-12-24T10:55:55.645Z,1050
2017-12-24T10:56:55.412Z,1160
2017-12-24T10:57:55.432Z,980
2017-12-24T10:58:55.455Z,870
2017-12-24T10:59:55.817Z,810
2017-12-24T11:00:55.511Z,840
2017-12-24T11:01:55.586Z,855
2017-12-24T11:02:55.554Z,930
2017-12-24T11:03:55.325Z,980
2017-12-24T11:04:55.860Z,1015
2017-12-24T11:05:55.626Z,990
2017-12-24T11:06:55.906Z,1000
2017-12-24T11:07:55.166Z,1055
2017-12-24T11:08:55.993Z,1210
2017-12-24T11:09:56.928Z,1565
2017-12-24T11:10:55.994Z,1815
2017-12-24T11:11:55.536Z,1700
2017-12-24T11:12:55.799Z,1645
2017-12-24T11:13:55.847Z,1650
2017-12-24T11:14:55.136Z,1770
2017-12-24T11:15:55.893Z,1670
2017-12-24T11:16:55.644Z,1570
2017-12-24T11:17:55.914Z,1450
2017-12-24T11:18:55.695Z,1535
2017-12-24T11:19:55.210Z,1625
2017-12-24T11:20:56.004Z,1585
2017-12-24T11:21:55.769Z,1565
2017-12-24T11:22:56.062Z,1675
2017-12-24T11:23:55.818Z,1845
2017-12-24T11:24:56.348Z,1855
2017-12-24T11:25:56.134Z,1685
2017-12-24T11:26:56.158Z,1550
2017-12-24T11:27:56.191Z,1505
2017-12-24T11:28:56.217Z,1345
2017-12-24T11:29:56.532Z,1225
2017-12-24T11:30:56.259Z,1250
2017-12-24T11:31:56.049Z,1335
2017-12-24T11:32:56.565Z,1365
2017-12-24T11:33:56.341Z,1470
2017-12-24T11:34:56.632Z,1540
2017-12-24T11:35:56.138Z,1610
2017-12-24T11:36:56.165Z,1670
2017-12-24T11:37:56.195Z,1520
2017-12-24T11:38:56.229Z,1540
2017-12-24T11:39:56.757Z,1760
2017-12-24T11:40:56.794Z,1855
2017-12-24T11:41:56.510Z,1840
2017-12-24T11:42:56.333Z,1810
2017-12-24T11:43:56.607Z,1810
2017-12-24T11:44:56.382Z,1825
2017-12-24T11:45:56.664Z,1850
2017-12-24T11:46:56.955Z,1870
2017-12-24T11:47:56.836Z,1810
2017-12-24T11:48:56.738Z,1855
2017-12-24T11:49:56.769Z,1865
2017-12-24T11:50:56.792Z,1935
2017-12-24T11:51:56.568Z,2050
2017-12-24T11:52:57.097Z,1920
2017-12-24T11:53:56.674Z,1310
2017-12-24T11:54:57.168Z,1345
2017-12-24T11:55:56.680Z,1930
2017-12-24T11:56:56.709Z,1835
2017-12-24T11:57:56.736Z,2040
2017-12-24T11:58:56.257Z,2145
2017-12-24T11:59:56.993Z,2020
2017-12-24T12:00:56.844Z,2120
2017-12-24T12:01:56.846Z,2145
2017-12-24T12:02:56.931Z,2070
2017-12-24T12:03:56.905Z,2025
2017-12-24T12:04:57.260Z,1970
2017-12-24T12:05:57.218Z,1985
2017-12-24T12:06:57.261Z,2185
2017-12-24T12:07:57.023Z,2215
2017-12-24T12:08:57.576Z,2195
2017-12-24T12:09:56.821Z,2150
2017-12-24T12:10:57.423Z,2045
2017-12-24T12:11:57.145Z,2105
2017-12-24T12:12:58.184Z,2210
2017-12-24T12:13:57.451Z,2195
2017-12-24T12:14:56.974Z,2170
2017-12-24T12:15:57.258Z,2210
2017-12-24T12:16:57.538Z,2155
2017-12-24T12:17:57.358Z,2125
2017-12-24T12:18:57.595Z,2160
2017-12-24T12:19:57.644Z,2125
2017-12-24T12:20:57.906Z,2010
2017-12-24T12:21:57.437Z,2060
2017-12-24T12:22:57.713Z,2180
2017-12-24T12:23:57.996Z,2165
2017-12-24T12:24:58.024Z,2170
2017-12-24T12:25:58.052Z,2165
2017-12-24T12:26:57.329Z,2120
2017-12-24T12:27:57.608Z,2165
2017-12-24T12:28:57.892Z,2130
2017-12-24T12:29:57.927Z,2170
2017-12-24T12:30:58.222Z,2225
2017-12-24T12:31:57.724Z,2160
2017-12-24T12:32:57.553Z,2075
2017-12-24T12:33:58.490Z,2020
2017-12-24T12:34:58.325Z,2040
2017-12-24T12:35:58.360Z,2110
2017-12-24T12:36:58.136Z,2195
2017-12-24T12:37:58.158Z,2215
2017-12-24T12:38:58.457Z,2145
2017-12-24T12:39:58.215Z,2215
2017-12-24T12:40:57.995Z,2300
2017-12-24T12:41:58.286Z,2245
2017-12-24T12:42:58.330Z,2135
2017-12-24T12:43:58.384Z,2115
2017-12-24T12:44:58.388Z,2180
2017-12-24T12:45:58.200Z,2190
2017-12-24T12:46:58.439Z,2215
2017-12-24T12:47:58.517Z,2190
2017-12-24T12:48:58.512Z,2160
2017-12-24T12:49:58.525Z,2245
2017-12-24T12:50:58.558Z,2210
2017-12-24T12:51:58.583Z,2055
2017-12-24T12:52:58.627Z,1950
2017-12-24T12:53:58.909Z,2100
2017-12-24T12:54:58.718Z,2240
2017-12-24T12:55:58.961Z,2180
2017-12-24T12:56:58.278Z,2175
2017-12-24T12:57:59.032Z,2185
2017-12-24T12:58:58.539Z,2150
2017-12-24T12:59:58.821Z,2100
2017-12-24T13:00:58.850Z,2185
2017-12-24T13:01:58.890Z,2205
2017-12-24T13:02:58.918Z,2170
2017-12-24T13:03:58.991Z,2240
2017-12-24T13:04:58.483Z,2275
2017-12-24T13:05:58.761Z,2125
2017-12-24T13:06:59.058Z,2125
2017-12-24T13:07:58.562Z,2150
2017-12-24T13:08:59.360Z,2130
2017-12-24T13:09:58.877Z,2085
2017-12-24T13:10:59.409Z,1655
2017-12-24T13:11:59.193Z,1200
2017-12-24T13:12:59.218Z,765
2017-12-24T13:13:59.247Z,390
2017-12-24T13:14:59.526Z,210
2017-12-24T13:15:59.312Z,205
2017-12-24T13:16:59.130Z,205
2017-12-24T13:17:59.619Z,200
2017-12-24T13:18:59.487Z,200
2017-12-24T13:19:59.419Z,195
2017-12-24T13:20:59.707Z,195
2017-12-24T13:21:59.229Z,195
2017-12-24T13:22:59.501Z,195
2017-12-24T13:23:59.297Z,195
2017-12-24T13:24:59.344Z,190
2017-12-24T13:25:59.323Z,190
2017-12-24T13:26:58.849Z,190
2017-12-24T13:27:59.876Z,185
2017-12-24T13:28:59.152Z,185
2017-12-24T13:29:59.676Z,185
2017-12-24T13:30:59.709Z,185
2017-12-24T13:31:59.471Z,185
2017-12-24T13:33:00.018Z,180
2017-12-24T13:34:00.069Z,180
2017-12-24T13:34:59.543Z,180
2017-12-24T13:35:59.567Z,180
2017-12-24T13:36:59.841Z,175
2017-12-24T13:37:59.872Z,175
2017-12-24T13:38:59.623Z,175
2017-12-24T13:39:59.650Z,165
2017-12-24T13:40:59.928Z,175
2017-12-24T13:41:59.953Z,170
2017-12-24T13:43:00.246Z,170
2017-12-24T13:44:00.048Z,170
2017-12-24T13:44:59.762Z,165
2017-12-24T13:46:00.034Z,165
2017-12-24T13:47:00.060Z,165
2017-12-24T13:48:00.076Z,160
2017-12-24T13:48:59.910Z,160
2017-12-24T13:50:00.375Z,160
2017-12-24T13:51:00.386Z,160
2017-12-24T13:52:00.162Z,155
2017-12-24T13:53:00.171Z,155
2017-12-24T13:53:59.962Z,155
2017-12-24T13:54:59.961Z,155
2017-12-24T13:56:00.234Z,150
2017-12-24T13:57:00.258Z,150
2017-12-24T13:57:59.774Z,150
2017-12-24T13:59:00.549Z,150
2017-12-24T14:00:00.601Z,145
2017-12-24T14:01:00.080Z,145
2017-12-24T14:02:00.368Z,145
2017-12-24T14:02:59.896Z,145
2017-12-24T14:04:00.392Z,145
2017-12-24T14:05:00.736Z,145
2017-12-24T14:06:00.182Z,140
2017-12-24T14:06:59.949Z,140
2017-12-24T14:08:00.223Z,140
2017-12-24T14:09:00.587Z,140
2017-12-24T14:10:00.514Z,135
2017-12-24T14:11:00.283Z,135
2017-12-24T14:12:00.804Z,130
2017-12-24T14:13:00.569Z,130
2017-12-24T14:14:00.084Z,130